HARTSFIELD - JACKSON ATLANTA INTL

KATL (ATL)
Atlanta, Georgia
Towered

Vatsim Metar:
KATL 280352Z 31017G28KT 10SM SCT025 BKN032 BKN250 07/02 A3013 RMK AO2 PK WND 31028/0352 SLP206 T00720017

No ATC Online

Traffic

Inbound:
Ident
Type
Name
ETA
Phase
JBU6109
A321/L
Ross McDonagh KBOS
Taxiing In
DAL3627
A320
Antonio Mogavero KFCM
Deplaning
DAL2710
B738/L
Jimmy Helton KBNA
04:10 Z
Descent
AAL2
B77W/L
Triveni Singh Grewal KMIA
04:13 Z
Descent
DAL2147
CRJ7/L
Cooper McCoy KATL
04:26 Z
Climb
DAL1425
A320/L
Michael Chinn CVG
04:30 Z
Climb
DAL2033
A321/L
Shawn Olah KAGC
05:18 Z
Climb
BW457
B738/L
Darion D TTPP
06:05 Z
Climb
DAL1707
B752/L
Tyler Rodick KMCI
05:21 Z
Cruse
CLX47S
H/B744/L
Mohamed Bakri FAPE
06:35 Z
Cruse
FIN126
A332
Veeti Karppi EFMI
11:43 Z
Cruse

Outbound:
Ident
Type
Name
Destination
Phase
DAL1013
A359/L
Carter Davis KOKC
PHNL
Boarding
DAL1489
B752/Z
1002873 KSUA
KRSW
Climb
DAL1790
MD83/G
Leonel Fuentes KSAT
KMEM
Climb
DAL250
H/B763/Z
1360962 AUS
KRSW
Climb
DAL1515
A319/L
Charles Elmer
KDCA
Climb